Accueil
METAR-TAF:

METAR-TAF

Aéroports :

Gilze-Rijen, Pays-Bas

latitude: 51-34N, longitude: 004-56E, altitude: 15 m

Observation

Le bulletin a été fait il y a 24 minutes, à 11:55 UTC
Vent 5 kt de sud-ouest
Température 24°C
Humidité 38%
Pression 1018 hPa
Visibilité 10 km ou plus
pas de nuages en-dessous de 1500 mètres et pas de cumulonimbus.

METAR: EHGR 181155Z AUTO VRB04KT 9999 BKN058 24/09 Q1018 BLU 22005KT CAVOK

Heure: 14:19 (12:19 UTC)

Prévision

Le bulletin a été fait il y a 3 heures et 45 minutes, à 08:34 UTC
Prévision valable du 18 à 09 UTC au 18 à 21 UTC
Vent 6 kt de sud/sud-ouest
Visibilité 10 km ou plus
pas de nuages en-dessous de 1500 mètres et pas de cumulonimbus.
Evoluant progressivement
du 18 à 14 UTC au 18 à 17 UTC
Vent 7 kt de nord-ouest

TAF: EHGR 180834Z 1809/1821 21006KT CAVOK BECMG 1814/1817 32007KT

Observations et prévisions météorologiques de plus de 4000 aéroports (messages METAR et TAF).

Les stations disponibles sont représentées par des disques jaunes et rouges sur la carte.

Passer la souris dessus pour voir le nom de la station.

Cliquer dessus pour voir les observations et prévisions météorologiques.

Pour changer de carte: cliquez sur les boutons verts avec une croix noire pour zoomer, sur le bouton vert avec un tiret pour effectuer un zoom arrière, ou sur les flèches vertes pour les cartes adjacentes.


METAR-TAF: